Jesup, Iowa
Current Conditions -  °F | °C
As of 5:15 AM on Sunday 21 Dec 2014 (Local Time) from KIIB Reporting Station
Haze Haze  
Wind Chill: 25°   Ceiling: 100
Heat Index: 34°   Visibility: 1mi
Dew Point: 34°   Wind: 12mph
Humidity: 100%   Direction: 160°SSE
Pressure: 30.04"   Gusts: NA
Location:  42.48°N, 92.06°W
Report Text: KIIB 211115Z AUTO 16010KT 1SM BR OVC001 01/01 A3004 RMK AO2
Loading
Personal Weather Stations






























Interactive Weather Map New forecast layout! Learn more

10-Day Weather Forecast

Advertisements
Track Severe Weather on mobile